This is the latest recevied weather packets stored in our database for station/object N1ORT. If no packets are shown the sender has not sent any weather packets the latest 1 day(s).
| Time | Temp. | Humidity | Pressure | Rain* | Wind** | Luminosity | Snow |
|---|---|---|---|---|---|---|---|
| 1777987120 | 16.67° C | 67% | 1007.6 hPa | 0 mm | 0.45 m/s, 290° | 315 W/m² | - |
| 1777986817 | 16.67° C | 66% | 1007.6 hPa | 0 mm | 0 m/s | 180 W/m² | - |
| 1777986515 | 16.67° C | 67% | 1007.7 hPa | 0 mm | 0 m/s | 137 W/m² | - |
| 1777986213 | 17.22° C | 65% | 1007.7 hPa | 0 mm | 0 m/s | 182 W/m² | - |
| 1777985910 | 16.11° C | 68% | 1007.6 hPa | 0 mm | 0.89 m/s, 108° | 347 W/m² | - |
| 1777985607 | 15.56° C | 68% | 1007.5 hPa | 0 mm | 1.34 m/s, 246° | 176 W/m² | - |
| 1777985304 | 15.56° C | 69% | 1007.4 hPa | 0 mm | 0.89 m/s, 141° | 149 W/m² | - |
| 1777985000 | 15.56° C | 70% | 1007.5 hPa | 0 mm | 0 m/s | 215 W/m² | - |
| 1777984696 | 15.56° C | 69% | 1007.7 hPa | 0 mm | 0.45 m/s, 296° | 170 W/m² | - |
| 1777984393 | 15.56° C | 69% | 1007.7 hPa | 0 mm | 2.24 m/s, 255° | 145 W/m² | - |
| 1777984089 | 15.56° C | 69% | 1007.7 hPa | 0 mm | 1.34 m/s, 96° | 139 W/m² | - |
| 1777983787 | 15.56° C | 68% | 1007.7 hPa | 0 mm | 3.13 m/s, 304° | 115 W/m² | - |
| 1777983483 | 15.56° C | 67% | 1007.7 hPa | 0 mm | 1.34 m/s, 103° | 127 W/m² | - |
| 1777983180 | 16.11° C | 67% | 1007.9 hPa | 0 mm | 1.34 m/s, 69° | 152 W/m² | - |
| 1777982876 | 16.11° C | 66% | 1007.7 hPa | 0 mm | 1.79 m/s, 286° | 337 W/m² | - |
| 1777982573 | 16.11° C | 67% | 1007.5 hPa | 0 mm | 2.24 m/s, 251° | 352 W/m² | - |
| 1777982271 | 16.11° C | 68% | 1007.4 hPa | 0 mm | 0.89 m/s, 13° | 272 W/m² | - |
| 1777981969 | 15.56° C | 68% | 1007.5 hPa | 0 mm | 2.68 m/s, 325° | 219 W/m² | - |
| 1777981666 | 15° C | 69% | 1007.3 hPa | 0 mm | 0.89 m/s, 85° | 165 W/m² | - |
| 1777981362 | 15° C | 70% | 1007.3 hPa | 0 mm | 0.89 m/s, 241° | 193 W/m² | - |
| 1777981059 | 14.44° C | 71% | 1007.4 hPa | 0 mm | 0.45 m/s, 40° | 107 W/m² | - |
| 1777980756 | 14.44° C | 70% | 1007.3 hPa | 0 mm | 1.34 m/s, 8° | 118 W/m² | - |
| 1777980451 | 14.44° C | 71% | 1007.5 hPa | 0 mm | 1.79 m/s, 64° | 117 W/m² | - |
| 1777980150 | 14.44° C | 71% | 1007.4 hPa | 0 mm | 1.79 m/s, 262° | 110 W/m² | - |
| 1777979849 | 13.89° C | 72% | 1007.7 hPa | 0 mm | 0.89 m/s, 180° | 75 W/m² | - |
* Rain latest hour (hover to see other rain measurements)
** Current wind speed in m/s (hover to see current wind gust speed)